Time;durP1;ratioP1;P1;durP2;ratioP2;P2;SDS_P1;SDS_P2;PMS_P1;PMS_P2;Temp;Humidity;BMP_temperature;BMP_pressure;BME280_temperature;BME280_humidity;BME280_pressure;Samples;Min_cycle;Max_cycle;Signal;HPM_P1;HPM_P2
2021/07/03 00:01:16;;;;;;;29.03;18.83;;;14.20;99.90;;;;;;4992817;28;20242;-63
2021/07/03 00:03:43;;;;;;;30.93;18.87;;;14.20;99.90;;;;;;4992511;28;20629;-64
2021/07/03 00:06:10;;;;;;;28.33;17.87;;;14.20;99.90;;;;;;4992777;28;20224;-64
2021/07/03 00:08:36;;;;;;;26.07;17.90;;;14.20;99.90;;;;;;4992092;28;20679;-64
2021/07/03 00:11:08;;;;;;;28.23;19.23;;;14.20;99.90;;;;;;4992640;28;20647;-64
2021/07/03 00:13:35;;;;;;;27.47;16.97;;;14.10;99.90;;;;;;4992416;28;20216;-63
2021/07/03 00:16:02;;;;;;;27.60;18.20;;;14.10;1.00;;;;;;4992510;28;20274;-64
2021/07/03 00:18:29;;;;;;;27.87;18.53;;;14.10;1.00;;;;;;4992523;28;20671;-64
2021/07/03 00:20:56;;;;;;;26.20;19.10;;;14.10;1.00;;;;;;4992450;28;20678;-64
2021/07/03 00:23:22;;;;;;;27.90;19.23;;;14.00;1.00;;;;;;4992156;28;20250;-64
2021/07/03 00:25:49;;;;;;;32.23;20.27;;;14.00;1.00;;;;;;4992388;28;20239;-64
2021/07/03 00:28:17;;;;;;;30.03;20.70;;;14.00;1.00;;;;;;4992643;28;20332;-64
2021/07/03 00:30:43;;;;;;;29.53;19.27;;;14.00;1.00;;;;;;4992545;28;20211;-63
2021/07/03 00:33:10;;;;;;;34.10;20.83;;;14.00;1.00;;;;;;4992314;28;20258;-64
2021/07/03 00:35:37;;;;;;;34.17;21.10;;;13.90;2.80;;;;;;4991874;28;20294;-64
2021/07/03 00:38:03;;;;;;;35.00;22.53;;;13.90;97.50;;;;;;4992188;28;20212;-64
2021/07/03 00:40:30;;;;;;;42.10;24.63;;;13.90;99.90;;;;;;4992449;28;20630;-63
2021/07/03 00:42:57;;;;;;;38.30;24.37;;;13.90;99.90;;;;;;4992432;28;20203;-64
2021/07/03 00:45:26;;;;;;;36.77;23.90;;;13.90;1.00;;;;;;4992036;28;20292;-64
2021/07/03 00:47:53;;;;;;;37.93;22.73;;;13.90;1.00;;;;;;4992202;28;20617;-64
2021/07/03 00:50:19;;;;;;;35.53;22.73;;;13.80;99.90;;;;;;4991975;28;20237;-64
2021/07/03 00:52:46;;;;;;;29.83;23.00;;;13.80;99.90;;;;;;4992359;28;20206;-64
2021/07/03 00:55:15;;;;;;;35.07;23.63;;;13.90;99.90;;;;;;4992012;28;20270;-64
2021/07/03 00:57:42;;;;;;;41.33;23.73;;;13.80;1.00;;;;;;4992169;28;20226;-64
2021/07/03 01:00:10;;;;;;;43.73;25.27;;;13.80;1.00;;;;;;4992202;28;20210;-64
2021/07/03 01:02:38;;;;;;;37.43;24.27;;;13.70;12.40;;;;;;4992264;28;20207;-63
2021/07/03 01:05:07;;;;;;;36.10;24.87;;;13.70;99.90;;;;;;4991799;28;20221;-64
2021/07/03 01:07:34;;;;;;;34.53;22.60;;;13.70;99.90;;;;;;4991905;28;20208;-64
2021/07/03 01:10:01;;;;;;;36.17;22.77;;;13.70;99.90;;;;;;4992066;28;20242;-64
2021/07/03 01:12:28;;;;;;;43.30;23.57;;;13.70;99.90;;;;;;4992016;28;20225;-63
2021/07/03 01:14:54;;;;;;;38.10;24.70;;;13.60;99.90;;;;;;4991771;28;20736;-63
2021/07/03 01:17:21;;;;;;;44.80;24.47;;;13.60;99.90;;;;;;4991436;28;20231;-64
2021/07/03 01:19:49;;;;;;;43.17;24.23;;;13.60;1.00;;;;;;4992104;28;20211;-63
2021/07/03 01:22:18;;;;;;;41.67;24.57;;;13.60;99.90;;;;;;4995100;28;20227;-63
2021/07/03 01:24:45;;;;;;;41.67;23.67;;;13.50;99.90;;;;;;4995517;28;20208;-64
2021/07/03 01:27:13;;;;;;;41.97;24.17;;;13.50;99.90;;;;;;4995547;28;20231;-64
2021/07/03 01:29:40;;;;;;;38.77;23.57;;;13.50;99.90;;;;;;4995298;28;20290;-64
2021/07/03 01:32:07;;;;;;;46.20;25.10;;;13.50;99.90;;;;;;4995238;28;20212;-64
2021/07/03 01:34:34;;;;;;;47.60;25.43;;;13.50;99.90;;;;;;4994963;28;20679;-63
2021/07/03 01:37:01;;;;;;;43.13;24.13;;;13.50;99.90;;;;;;4995019;28;20699;-64
2021/07/03 01:39:29;;;;;;;42.53;25.00;;;13.50;99.90;;;;;;4995097;28;20265;-64
2021/07/03 01:41:56;;;;;;;42.40;24.20;;;13.50;99.90;;;;;;4995108;28;20231;-64
2021/07/03 01:44:28;;;;;;;40.47;25.30;;;13.50;99.90;;;;;;4994572;28;20688;-64
2021/07/03 01:46:56;;;;;;;48.20;24.33;;;13.50;99.90;;;;;;4997290;28;20238;-63
2021/07/03 01:49:24;;;;;;;40.43;23.77;;;13.50;99.90;;;;;;4995204;28;20270;-63
2021/07/03 01:51:51;;;;;;;43.07;24.27;;;13.50;81.30;;;;;;4995247;28;20668;-64
2021/07/03 01:54:18;;;;;;;41.90;23.57;;;13.40;1.00;;;;;;4994738;28;20211;-64
2021/07/03 01:56:57;;;;;;;45.03;24.47;;;13.40;1.00;;;;;;4994723;28;20257;-64
2021/07/03 01:59:24;;;;;;;41.37;24.90;;;13.40;1.00;;;;;;4995056;28;20215;-64
2021/07/03 02:01:51;;;;;;;46.47;25.00;;;13.40;1.00;;;;;;4994868;28;20303;-63
2021/07/03 02:04:18;;;;;;;39.30;23.67;;;13.30;1.00;;;;;;4994784;28;20269;-63
2021/07/03 02:06:44;;;;;;;44.60;26.00;;;13.30;1.00;;;;;;4994785;28;20288;-64
2021/07/03 02:09:11;;;;;;;42.57;24.87;;;13.30;1.00;;;;;;4994905;28;20642;-63
2021/07/03 02:11:38;;;;;;;41.53;22.77;;;13.40;1.00;;;;;;4994330;28;20213;-64
2021/07/03 02:14:06;;;;;;;40.37;24.33;;;13.30;1.00;;;;;;4994699;28;20625;-63
2021/07/03 02:16:32;;;;;;;41.17;23.83;;;13.30;1.00;;;;;;4994298;28;20287;-63
2021/07/03 02:18:59;;;;;;;44.57;24.27;;;13.30;81.20;;;;;;4994780;28;20257;-64
2021/07/03 02:21:26;;;;;;;42.63;22.57;;;13.20;99.90;;;;;;4994516;28;20217;-63
2021/07/03 02:23:52;;;;;;;43.30;25.37;;;13.20;99.90;;;;;;4994249;28;20212;-63
2021/07/03 02:26:19;;;;;;;46.40;24.47;;;13.20;99.90;;;;;;4994294;28;20825;-64
2021/07/03 02:28:46;;;;;;;46.20;26.03;;;13.20;99.90;;;;;;4994513;28;20249;-63
2021/07/03 02:31:14;;;;;;;54.40;27.17;;;13.20;99.90;;;;;;4994204;28;20679;-63
2021/07/03 02:33:40;;;;;;;45.30;25.90;;;13.20;99.90;;;;;;4997274;28;20673;-63
2021/07/03 02:36:07;;;;;;;45.70;26.57;;;13.30;1.00;;;;;;4996850;28;20776;-64
2021/07/03 02:38:34;;;;;;;50.67;27.00;;;13.20;1.00;;;;;;4995921;28;20271;-64
2021/07/03 02:41:00;;;;;;;43.77;25.07;;;13.20;6.00;;;;;;4994295;28;20216;-63
2021/07/03 02:43:27;;;;;;;45.17;23.60;;;13.20;5.70;;;;;;4994031;28;20213;-63
2021/07/03 02:45:54;;;;;;;47.00;23.83;;;13.20;90.00;;;;;;4993872;28;20778;-64
2021/07/03 02:48:22;;;;;;;39.93;23.50;;;13.20;95.90;;;;;;4994089;28;20274;-63
2021/07/03 02:50:48;;;;;;;42.90;23.80;;;13.20;99.90;;;;;;4993963;28;20209;-64
2021/07/03 02:53:15;;;;;;;40.47;23.03;;;13.20;91.40;;;;;;4993697;28;20267;-64
2021/07/03 02:55:41;;;;;;;41.83;22.70;;;13.20;51.50;;;;;;4993615;28;20711;-64
2021/07/03 02:58:08;;;;;;;35.67;22.83;;;13.10;7.90;;;;;;4993946;28;20229;-64
2021/07/03 03:00:35;;;;;;;39.17;23.03;;;13.10;1.00;;;;;;4993775;28;20207;-64
2021/07/03 03:03:02;;;;;;;48.40;23.37;;;13.10;1.00;;;;;;4993845;28;20214;-64
2021/07/03 03:05:30;;;;;;;41.53;22.97;;;13.00;1.00;;;;;;4993427;28;20649;-64
2021/07/03 03:07:57;;;;;;;40.23;23.00;;;13.00;1.00;;;;;;4993534;28;20219;-64
2021/07/03 03:10:24;;;;;;;44.63;24.83;;;13.00;1.00;;;;;;4993720;28;20263;-63
2021/07/03 03:12:50;;;;;;;37.50;23.33;;;13.00;1.00;;;;;;4993521;28;20213;-63
2021/07/03 03:15:18;;;;;;;43.13;24.43;;;13.00;1.00;;;;;;4993535;28;20212;-64
2021/07/03 03:17:44;;;;;;;44.27;24.23;;;13.00;99.90;;;;;;4993554;28;20229;-64
2021/07/03 03:20:13;;;;;;;40.37;23.27;;;13.00;1.00;;;;;;4993314;28;20210;-63
2021/07/03 03:22:42;;;;;;;45.07;23.77;;;13.00;99.90;;;;;;4993708;28;20220;-64
2021/07/03 03:25:10;;;;;;;40.03;23.47;;;13.00;99.90;;;;;;4993308;28;20266;-63
2021/07/03 03:27:37;;;;;;;38.03;23.40;;;13.00;99.90;;;;;;4993055;28;20671;-63
2021/07/03 03:30:06;;;;;;;43.93;22.57;;;13.00;99.90;;;;;;4993197;28;20738;-64
2021/07/03 03:32:32;;;;;;;35.80;22.27;;;13.00;99.90;;;;;;4993014;28;20212;-64
2021/07/03 03:34:59;;;;;;;44.63;23.50;;;13.00;99.90;;;;;;4992946;28;20207;-64
2021/07/03 03:37:26;;;;;;;39.43;22.70;;;13.00;99.90;;;;;;4993195;28;20231;-64
2021/07/03 03:39:54;;;;;;;39.80;23.13;;;13.00;1.00;;;;;;4993200;28;20205;-64
2021/07/03 03:42:20;;;;;;;42.27;23.00;;;13.00;1.00;;;;;;4993248;28;20259;-63
2021/07/03 03:44:47;;;;;;;41.63;23.97;;;13.00;1.00;;;;;;4992307;28;20625;-64
2021/07/03 03:47:13;;;;;;;38.00;23.67;;;13.00;52.60;;;;;;4992858;28;20228;-64
2021/07/03 03:49:40;;;;;;;39.57;22.20;;;13.00;99.90;;;;;;4992607;28;20290;-63
2021/07/03 03:52:09;;;;;;;41.07;24.07;;;13.10;99.90;;;;;;4993174;28;20291;-64
2021/07/03 03:54:36;;;;;;;40.47;24.87;;;13.10;99.90;;;;;;4992639;28;20231;-63
2021/07/03 03:59:45;;;;;;;38.53;24.93;;;13.20;1.00;;;;;;4991642;28;20237;-63
2021/07/03 04:02:11;;;;;;;36.73;23.80;;;13.30;1.00;;;;;;4992768;28;20213;-64
2021/07/03 04:04:38;;;;;;;36.37;23.27;;;13.30;1.00;;;;;;4992636;28;20214;-63
2021/07/03 04:07:05;;;;;;;42.50;26.20;;;13.40;1.00;;;;;;4992736;28;20273;-64
2021/07/03 04:09:32;;;;;;;37.50;23.90;;;13.50;2.90;;;;;;4993012;28;20214;-64
2021/07/03 04:11:58;;;;;;;42.23;25.23;;;13.60;96.10;;;;;;4992658;28;20615;-64
2021/07/03 04:14:26;;;;;;;31.93;23.37;;;13.60;99.90;;;;;;4992596;28;20207;-64
2021/07/03 04:16:55;;;;;;;28.87;21.13;;;13.70;99.90;;;;;;4992627;28;20290;-63
2021/07/03 04:19:21;;;;;;;29.37;21.20;;;13.80;99.90;;;;;;4992737;28;20218;-64
2021/07/03 04:21:48;;;;;;;31.37;21.70;;;13.90;99.90;;;;;;4992606;28;20250;-64
2021/07/03 04:24:14;;;;;;;29.87;21.97;;;14.00;99.90;;;;;;4992291;28;20749;-63
2021/07/03 04:26:41;;;;;;;32.03;21.17;;;14.00;99.90;;;;;;4992429;28;20273;-63
2021/07/03 04:29:08;;;;;;;28.70;20.53;;;14.10;99.90;;;;;;4992451;28;20203;-64
2021/07/03 04:31:36;;;;;;;27.53;20.73;;;14.20;99.90;;;;;;4992686;28;20776;-64
2021/07/03 04:34:02;;;;;;;28.53;19.90;;;14.30;1.00;;;;;;4992372;28;20211;-64
2021/07/03 04:36:29;;;;;;;31.53;21.53;;;14.40;99.90;;;;;;4992330;28;20721;-64
2021/07/03 04:38:56;;;;;;;36.60;23.63;;;14.40;99.90;;;;;;4992406;28;20232;-63
2021/07/03 04:41:23;;;;;;;35.70;23.93;;;14.50;1.00;;;;;;4992462;28;20738;-64
2021/07/03 04:43:49;;;;;;;29.07;22.50;;;14.60;99.90;;;;;;4991994;28;20211;-63
2021/07/03 04:46:16;;;;;;;32.03;22.53;;;14.60;1.00;;;;;;4992440;28;20254;-64
2021/07/03 04:48:44;;;;;;;30.37;21.33;;;14.70;12.90;;;;;;4992471;28;20258;-64
2021/07/03 04:51:11;;;;;;;28.27;21.40;;;14.70;99.90;;;;;;4992399;28;20266;-64
2021/07/03 04:53:37;;;;;;;31.50;22.77;;;14.80;99.90;;;;;;4992383;28;20262;-63
2021/07/03 04:56:04;;;;;;;27.90;21.27;;;14.80;99.90;;;;;;4993571;28;20634;-64
2021/07/03 04:58:31;;;;;;;28.47;20.97;;;14.90;1.00;;;;;;4996088;28;20231;-64
2021/07/03 05:00:57;;;;;;;27.53;20.30;;;14.90;1.00;;;;;;4996197;28;20207;-64
2021/07/03 05:03:24;;;;;;;27.60;21.40;;;15.00;99.90;;;;;;4996023;28;20744;-64
2021/07/03 05:05:52;;;;;;;26.73;19.70;;;15.00;99.90;;;;;;4995920;28;20273;-64
2021/07/03 05:08:19;;;;;;;28.50;19.93;;;15.10;99.90;;;;;;4995725;28;20744;-64
2021/07/03 05:10:45;;;;;;;28.10;20.17;;;15.20;29.00;;;;;;4995796;28;20215;-64
2021/07/03 05:13:12;;;;;;;26.33;19.20;;;15.30;1.00;;;;;;4996020;28;20208;-64
2021/07/03 05:15:38;;;;;;;27.53;19.30;;;15.40;99.90;;;;;;4995617;28;20232;-64
2021/07/03 05:18:05;;;;;;;27.60;19.10;;;15.40;99.90;;;;;;4995761;28;20231;-64
2021/07/03 05:20:32;;;;;;;26.43;18.30;;;15.50;99.90;;;;;;4995579;28;20211;-64
2021/07/03 05:23:00;;;;;;;25.53;17.80;;;15.60;99.90;;;;;;4995763;28;20290;-64
2021/07/03 05:25:26;;;;;;;26.07;18.30;;;15.70;1.00;;;;;;4995629;28;20227;-64
2021/07/03 05:27:53;;;;;;;21.10;17.47;;;15.90;99.90;;;;;;4995736;28;20208;-64
2021/07/03 05:30:20;;;;;;;21.47;16.63;;;16.00;92.50;;;;;;4995536;28;20668;-64
2021/07/03 05:32:47;;;;;;;19.97;15.27;;;16.10;1.00;;;;;;4995504;28;20641;-64
2021/07/03 05:35:14;;;;;;;19.83;15.93;;;16.20;99.90;;;;;;4995610;28;20742;-64
2021/07/03 05:37:41;;;;;;;18.10;14.40;;;16.40;99.90;;;;;;4995205;28;20227;-64
2021/07/03 05:40:12;;;;;;;18.87;14.73;;;16.50;99.90;;;;;;4995116;28;20212;-64
2021/07/03 05:42:39;;;;;;;21.07;14.93;;;16.60;1.00;;;;;;4995266;28;20211;-64
2021/07/03 05:45:08;;;;;;;19.63;15.70;;;16.70;1.00;;;;;;4995131;28;20239;-64
2021/07/03 05:47:34;;;;;;;20.40;14.10;;;16.80;1.00;;;;;;4995355;28;20274;-64
2021/07/03 05:50:01;;;;;;;18.63;13.57;;;16.90;99.90;;;;;;4995447;28;20212;-64
2021/07/03 05:52:27;;;;;;;17.93;13.77;;;17.00;99.90;;;;;;4995381;28;20246;-64
2021/07/03 05:54:54;;;;;;;19.37;13.77;;;17.10;99.90;;;;;;4995204;28;20207;-64
2021/07/03 05:57:24;;;;;;;16.87;13.70;;;17.10;99.90;;;;;;4995207;28;20227;-63
2021/07/03 05:59:51;;;;;;;17.47;13.23;;;17.10;99.90;;;;;;4995235;28;20211;-64
2021/07/03 06:02:18;;;;;;;17.20;12.63;;;17.20;99.90;;;;;;4994976;28;20208;-64
2021/07/03 06:04:44;;;;;;;16.53;12.70;;;17.20;13.60;;;;;;4994759;28;20208;-64
2021/07/03 06:07:11;;;;;;;16.57;12.00;;;17.20;1.00;;;;;;4994398;28;20231;-64
2021/07/03 06:09:38;;;;;;;19.63;12.50;;;17.10;1.00;;;;;;4995098;28;20212;-64
2021/07/03 06:12:05;;;;;;;16.37;12.97;;;17.10;1.00;;;;;;4995209;28;20208;-64
2021/07/03 06:14:33;;;;;;;16.40;12.50;;;17.20;1.00;;;;;;4995052;28;20575;-63
2021/07/03 06:16:59;;;;;;;15.53;12.57;;;17.20;1.00;;;;;;4995067;28;20232;-64
2021/07/03 06:19:26;;;;;;;18.17;13.53;;;17.20;1.00;;;;;;4994748;28;20278;-64
2021/07/03 06:21:53;;;;;;;16.40;12.37;;;17.20;1.00;;;;;;4995757;28;20207;-64
2021/07/03 06:24:19;;;;;;;16.47;12.40;;;17.20;1.00;;;;;;4995735;28;20212;-65
2021/07/03 06:26:47;;;;;;;17.33;13.27;;;17.30;1.00;;;;;;4995868;28;20223;-64
2021/07/03 06:29:13;;;;;;;17.27;13.13;;;17.40;99.90;;;;;;4996002;28;20203;-64
2021/07/03 06:31:41;;;;;;;14.67;12.53;;;17.50;99.90;;;;;;4997038;28;20256;-64
2021/07/03 06:34:08;;;;;;;17.43;13.97;;;17.70;99.90;;;;;;5001747;28;20207;-64
2021/07/03 06:36:34;;;;;;;16.27;13.13;;;17.80;99.90;;;;;;5002275;28;20227;-64
2021/07/03 06:39:01;;;;;;;16.60;13.33;;;18.00;99.90;;;;;;4997049;28;20224;-64
2021/07/03 06:41:28;;;;;;;15.77;13.17;;;18.10;99.90;;;;;;4994352;28;20690;-64
2021/07/03 06:43:55;;;;;;;19.63;13.53;;;18.30;99.90;;;;;;4994361;28;20212;-64
2021/07/03 06:46:22;;;;;;;16.47;12.50;;;18.40;99.90;;;;;;4994032;28;20585;-64
2021/07/03 06:48:50;;;;;;;19.33;13.57;;;18.50;9.40;;;;;;4993925;28;20208;-64
2021/07/03 06:51:16;;;;;;;18.03;12.87;;;18.70;1.00;;;;;;4994232;28;20270;-64
2021/07/03 06:53:43;;;;;;;15.77;12.17;;;18.80;1.00;;;;;;4994029;28;20207;-64
2021/07/03 06:56:10;;;;;;;14.97;12.10;;;19.00;1.00;;;;;;4993909;28;20231;-64
2021/07/03 06:58:36;;;;;;;19.67;14.73;;;19.20;1.00;;;;;;4990225;28;20223;-64
2021/07/03 07:01:03;;;;;;;17.13;13.63;;;19.30;1.00;;;;;;4993623;28;20277;-64
2021/07/03 07:03:30;;;;;;;19.00;13.97;;;19.50;1.00;;;;;;4993760;28;20211;-64
2021/07/03 07:05:58;;;;;;;16.77;12.90;;;19.60;1.00;;;;;;4993455;28;20424;-64
2021/07/03 07:08:24;;;;;;;20.43;16.10;;;19.70;1.00;;;;;;4993618;28;20208;-64
2021/07/03 07:10:51;;;;;;;22.17;16.50;;;19.80;1.00;;;;;;4993655;28;20204;-63
2021/07/03 07:13:30;;;;;;;24.93;16.87;;;20.00;1.00;;;;;;4993309;28;20508;-63
2021/07/03 07:15:57;;;;;;;20.50;15.47;;;20.20;1.00;;;;;;4993417;28;20239;-63
2021/07/03 07:18:24;;;;;;;18.10;15.57;;;20.30;1.00;;;;;;4992354;28;20277;-63
2021/07/03 07:20:51;;;;;;;22.83;16.20;;;20.30;99.90;;;;;;4993386;28;20211;-63
2021/07/03 07:23:19;;;;;;;22.33;16.07;;;20.30;1.00;;;;;;4993422;28;20561;-63
2021/07/03 07:25:47;;;;;;;18.57;14.77;;;20.50;1.00;;;;;;4993033;28;20646;-63
2021/07/03 07:28:14;;;;;;;21.97;16.30;;;20.60;99.90;;;;;;4993178;28;20239;-65
2021/07/03 07:30:40;;;;;;;20.80;16.30;;;20.80;1.00;;;;;;4993367;28;20211;-63
2021/07/03 07:33:07;;;;;;;22.70;15.87;;;20.90;99.90;;;;;;4993503;28;20383;-65
2021/07/03 07:35:34;;;;;;;21.47;16.00;;;21.00;99.90;;;;;;4992888;28;20277;-64
2021/07/03 07:38:00;;;;;;;21.77;15.13;;;21.20;99.90;;;;;;4993197;28;20603;-64
2021/07/03 07:40:28;;;;;;;23.10;14.77;;;21.30;99.90;;;;;;4993200;28;20254;-64
2021/07/03 07:42:55;;;;;;;21.47;14.17;;;21.40;99.90;;;;;;4992832;28;20258;-64
2021/07/03 07:45:22;;;;;;;17.80;14.53;;;21.30;99.90;;;;;;4993084;28;20266;-64
2021/07/03 07:47:49;;;;;;;18.13;13.50;;;21.50;99.90;;;;;;4993083;28;20215;-64
2021/07/03 07:50:16;;;;;;;16.00;13.37;;;21.70;99.90;;;;;;4993018;28;20208;-63
2021/07/03 07:52:43;;;;;;;16.57;12.57;;;21.90;99.90;;;;;;4992921;28;20208;-64
2021/07/03 07:55:10;;;;;;;18.47;11.57;;;22.10;99.90;;;;;;4992701;28;20212;-64
2021/07/03 07:57:38;;;;;;;18.00;12.27;;;22.30;99.90;;;;;;4992976;28;20635;-64
2021/07/03 08:00:07;;;;;;;15.93;12.50;;;22.50;99.90;;;;;;4992858;28;20224;-63
2021/07/03 08:02:33;;;;;;;14.50;11.20;;;22.50;99.90;;;;;;4992636;28;20204;-64
2021/07/03 08:05:00;;;;;;;16.00;11.50;;;22.50;99.90;;;;;;4992786;28;20216;-64
2021/07/03 08:07:26;;;;;;;15.93;11.63;;;22.60;99.90;;;;;;4992551;28;20243;-64
2021/07/03 08:09:53;;;;;;;13.87;10.73;;;22.40;99.90;;;;;;4992021;28;20254;-65
2021/07/03 08:12:20;;;;;;;13.17;9.73;;;22.60;99.90;;;;;;4995392;28;20226;-66
2021/07/03 08:14:48;;;;;;;14.93;10.50;;;22.70;99.90;;;;;;4989072;28;20215;-66
2021/07/03 08:17:14;;;;;;;13.07;9.90;;;22.80;99.90;;;;;;4989164;28;20278;-66
2021/07/03 08:19:41;;;;;;;21.50;17.20;;;22.80;99.90;;;;;;4988937;28;20728;-66
2021/07/03 08:22:08;;;;;;;12.30;9.80;;;22.90;99.90;;;;;;4988954;28;20274;-65
2021/07/03 08:24:34;;;;;;;11.40;9.67;;;23.10;99.90;;;;;;4988660;28;20215;-66
2021/07/03 08:27:02;;;;;;;15.63;10.00;;;23.30;99.90;;;;;;4988995;28;20736;-66
2021/07/03 08:29:29;;;;;;;14.37;10.67;;;23.00;99.90;;;;;;4989807;28;20211;-66
2021/07/03 08:31:57;;;;;;;16.83;11.23;;;23.00;99.90;;;;;;4992899;28;20988;-65
2021/07/03 08:34:23;;;;;;;15.10;9.63;;;22.80;99.90;;;;;;4993086;28;20262;-66
2021/07/03 08:36:50;;;;;;;13.63;9.73;;;22.90;99.90;;;;;;4992929;28;20794;-65
2021/07/03 08:39:17;;;;;;;18.53;10.00;;;23.10;99.90;;;;;;4992914;28;20227;-66
2021/07/03 08:41:44;;;;;;;11.87;9.63;;;23.30;99.90;;;;;;4992887;28;20262;-66
2021/07/03 08:44:13;;;;;;;12.40;9.30;;;23.60;99.90;;;;;;4993094;28;20219;-67
2021/07/03 08:46:42;;;;;;;15.73;8.23;;;23.70;99.90;;;;;;4992959;28;20227;-66
2021/07/03 08:49:10;;;;;;;11.87;9.20;;;23.80;99.90;;;;;;4992881;28;20219;-66
2021/07/03 08:51:37;;;;;;;10.20;8.63;;;23.90;99.90;;;;;;4992698;28;20596;-66
2021/07/03 08:54:05;;;;;;;11.63;8.80;;;24.00;99.90;;;;;;4992924;28;20215;-66
2021/07/03 08:56:32;;;;;;;12.70;9.53;;;24.00;99.90;;;;;;4992874;28;20224;-65
2021/07/03 08:58:59;;;;;;;10.37;8.60;;;23.90;99.90;;;;;;4992447;28;20235;-66
2021/07/03 09:01:25;;;;;;;10.30;8.40;;;23.90;99.90;;;;;;4992406;28;20265;-65
2021/07/03 09:03:53;;;;;;;11.53;8.17;;;24.00;99.90;;;;;;4992319;28;20208;-65
2021/07/03 09:06:31;;;;;;;11.33;8.50;;;24.20;99.90;;;;;;4995295;28;20596;-64
2021/07/03 09:08:58;;;;;;;10.20;7.67;;;24.40;99.90;;;;;;4995968;28;20211;-64
2021/07/03 09:11:25;;;;;;;10.90;7.53;;;24.60;99.90;;;;;;4995895;28;20208;-64
2021/07/03 09:13:59;;;;;;;13.13;8.00;;;24.60;99.90;;;;;;4995777;28;20207;-64
2021/07/03 09:16:32;;;;;;;10.57;7.30;;;24.80;99.90;;;;;;4995642;28;20289;-64
2021/07/03 09:19:00;;;;;;;11.53;8.00;;;24.40;99.90;;;;;;4995760;28;20231;-63
2021/07/03 09:21:27;;;;;;;17.37;9.00;;;24.40;99.90;;;;;;4995812;28;20204;-64
2021/07/03 09:23:55;;;;;;;12.37;8.97;;;24.00;99.90;;;;;;4995742;28;20618;-64
2021/07/03 09:26:22;;;;;;;10.73;8.10;;;24.00;99.90;;;;;;4995342;28;20232;-64
2021/07/03 09:28:49;;;;;;;9.70;7.50;;;24.10;99.90;;;;;;4995540;28;20602;-63
2021/07/03 09:31:18;;;;;;;9.57;7.27;;;24.00;99.90;;;;;;4995215;28;20218;-64
2021/07/03 09:33:47;;;;;;;9.80;7.33;;;24.10;99.90;;;;;;4994208;28;20688;-64
2021/07/03 09:36:15;;;;;;;11.83;7.63;;;24.30;99.90;;;;;;4995530;28;20224;-64
2021/07/03 09:38:43;;;;;;;9.50;7.50;;;24.40;99.90;;;;;;4995363;28;20274;-64
2021/07/03 09:41:14;;;;;;;10.97;8.03;;;24.30;99.90;;;;;;4994369;28;20251;-64
2021/07/03 09:43:54;;;;;;;9.23;7.33;;;24.30;99.90;;;;;;4994663;28;20208;-64
2021/07/03 09:46:22;;;;;;;10.87;7.17;;;24.40;99.90;;;;;;4995441;28;20231;-63
2021/07/03 09:48:50;;;;;;;10.40;7.10;;;24.60;99.90;;;;;;4995167;28;20211;-63
2021/07/03 09:51:17;;;;;;;8.47;6.47;;;24.80;99.90;;;;;;4995213;28;20246;-64
2021/07/03 09:53:44;;;;;;;9.37;6.70;;;24.80;99.90;;;;;;4994613;28;20219;-64
2021/07/03 09:56:13;;;;;;;11.63;7.87;;;24.80;99.90;;;;;;4994727;28;20265;-63
2021/07/03 09:58:43;;;;;;;11.90;7.07;;;24.50;99.90;;;;;;4994928;28;20207;-63
2021/07/03 10:01:10;;;;;;;14.93;7.73;;;24.10;99.90;;;;;;4995026;28;20636;-64
2021/07/03 10:03:38;;;;;;;19.97;8.07;;;24.00;99.90;;;;;;4994569;28;20203;-64
2021/07/03 10:06:06;;;;;;;8.60;6.87;;;24.20;99.90;;;;;;4994789;28;20314;-63
2021/07/03 10:08:38;;;;;;;8.80;6.57;;;24.40;99.90;;;;;;4994660;28;20247;-63
2021/07/03 10:11:06;;;;;;;9.83;6.57;;;24.60;99.90;;;;;;4994943;28;20242;-63
2021/07/03 10:13:35;;;;;;;9.37;6.90;;;24.90;99.90;;;;;;4994360;28;20254;-64
2021/07/03 10:16:04;;;;;;;8.40;6.43;;;25.00;99.90;;;;;;4994652;28;20231;-63
2021/07/03 10:18:31;;;;;;;8.33;6.70;;;25.20;99.90;;;;;;4994550;28;20212;-63
2021/07/03 10:21:10;;;;;;;11.90;7.23;;;25.30;99.90;;;;;;4994518;28;20218;-64
2021/07/03 10:23:38;;;;;;;14.67;7.17;;;25.30;99.90;;;;;;4994534;28;20211;-64
2021/07/03 10:26:04;;;;;;;7.87;6.17;;;25.00;99.90;;;;;;4994619;28;20232;-64
2021/07/03 10:28:34;;;;;;;9.30;6.73;;;25.20;99.90;;;;;;4996220;28;20203;-64
2021/07/03 10:31:07;;;;;;;9.03;6.37;;;25.40;99.90;;;;;;4995397;28;20735;-64
2021/07/03 10:33:45;;;;;;;8.53;5.90;;;25.60;99.90;;;;;;4993895;28;20207;-64
2021/07/03 10:36:24;;;;;;;6.77;5.67;;;25.80;99.90;;;;;;4996651;28;20223;-64
2021/07/03 10:38:51;;;;;;;7.57;5.50;;;25.60;99.90;;;;;;4996190;28;20207;-64
2021/07/03 10:41:19;;;;;;;7.87;6.13;;;25.40;99.90;;;;;;4995111;28;20208;-63
2021/07/03 10:43:49;;;;;;;7.60;6.03;;;25.20;99.90;;;;;;4993997;28;20243;-64
2021/07/03 10:46:27;;;;;;;7.83;5.67;;;25.00;99.90;;;;;;4993866;28;20282;-64
2021/07/03 10:48:58;;;;;;;9.23;6.60;;;24.90;99.90;;;;;;4994197;28;20295;-63
2021/07/03 10:51:34;;;;;;;6.97;5.90;;;24.60;99.90;;;;;;4993996;28;20668;-65
2021/07/03 10:54:12;;;;;;;11.63;6.33;;;24.40;99.90;;;;;;4993716;28;20274;-65
2021/07/03 10:56:42;;;;;;;6.80;5.13;;;24.30;99.90;;;;;;4993690;28;20298;-66
2021/07/03 10:59:11;;;;;;;7.20;5.10;;;24.20;99.90;;;;;;4993928;28;20224;-65
2021/07/03 11:01:38;;;;;;;5.80;4.93;;;24.20;99.90;;;;;;4994092;28;20278;-66
2021/07/03 11:04:17;;;;;;;10.20;5.10;;;24.60;99.90;;;;;;4993610;28;20216;-66
2021/07/03 11:06:49;;;;;;;6.13;4.57;;;24.60;99.90;;;;;;4993620;28;20231;-66
2021/07/03 11:09:26;;;;;;;4.47;4.07;;;24.60;99.90;;;;;;4993375;28;20203;-66
2021/07/03 11:11:55;;;;;;;6.73;4.60;;;24.50;99.90;;;;;;4994380;28;20207;-65
2021/07/03 11:14:24;;;;;;;5.47;4.90;;;24.80;99.90;;;;;;4993601;28;20687;-66
2021/07/03 11:16:52;;;;;;;6.67;4.97;;;24.90;99.90;;;;;;4994265;28;20238;-66
2021/07/03 11:19:27;;;;;;;6.27;5.20;;;24.80;99.90;;;;;;4993244;28;20227;-65
2021/07/03 11:22:05;;;;;;;6.30;5.37;;;24.80;99.90;;;;;;4993601;28;20222;-66
2021/07/03 11:24:40;;;;;;;7.57;4.87;;;24.90;99.90;;;;;;4993222;28;20282;-66
2021/07/03 11:27:07;;;;;;;5.73;5.17;;;24.90;99.90;;;;;;4993379;28;20317;-65
2021/07/03 11:29:35;;;;;;;5.70;5.10;;;25.10;99.90;;;;;;4993250;28;20267;-65
2021/07/03 11:32:06;;;;;;;6.70;4.77;;;25.30;99.90;;;;;;4993166;28;20204;-66
2021/07/03 11:34:34;;;;;;;7.60;4.67;;;25.50;99.90;;;;;;4993268;28;20203;-65
2021/07/03 11:37:02;;;;;;;4.13;3.70;;;25.70;99.90;;;;;;4993129;28;20234;-66
2021/07/03 11:39:29;;;;;;;4.20;3.80;;;25.70;99.90;;;;;;4993217;28;20251;-65
2021/07/03 11:42:00;;;;;;;6.17;4.00;;;25.80;99.90;;;;;;4985635;28;20254;-65
2021/07/03 11:44:27;;;;;;;7.17;4.43;;;26.00;99.90;;;;;;4989121;28;20211;-64
2021/07/03 11:46:55;;;;;;;4.80;4.30;;;26.20;99.90;;;;;;4989726;28;20293;-64
2021/07/03 11:49:22;;;;;;;7.17;4.10;;;26.20;99.90;;;;;;4988357;28;20216;-65
2021/07/03 11:52:01;;;;;;;5.10;3.97;;;26.30;99.90;;;;;;4988829;28;20277;-66
2021/07/03 11:54:28;;;;;;;7.53;4.73;;;26.40;99.90;;;;;;4989270;28;20243;-65
2021/07/03 11:56:59;;;;;;;5.07;4.53;;;26.50;99.90;;;;;;4989409;28;20235;-64
2021/07/03 11:59:28;;;;;;;4.60;3.97;;;26.60;99.90;;;;;;4989807;28;20809;-64
2021/07/03 12:01:56;;;;;;;6.03;4.77;;;26.20;99.90;;;;;;4989306;28;20219;-65
2021/07/03 12:04:23;;;;;;;7.10;5.13;;;26.10;99.90;;;;;;4987805;28;20278;-64
2021/07/03 12:07:00;;;;;;;5.37;4.60;;;25.70;99.90;;;;;;4989006;28;20314;-67
2021/07/03 12:09:35;;;;;;;4.70;4.30;;;25.60;99.90;;;;;;4989252;28;20294;-64
2021/07/03 12:12:01;;;;;;;5.20;4.43;;;25.80;99.90;;;;;;4988708;28;20257;-64
2021/07/03 12:14:28;;;;;;;6.33;4.53;;;25.90;99.90;;;;;;4989095;28;20219;-65
2021/07/03 12:16:59;;;;;;;5.40;4.27;;;26.10;99.90;;;;;;4989385;28;20231;-65
2021/07/03 12:19:27;;;;;;;5.17;4.30;;;26.10;99.90;;;;;;4988876;28;20927;-66
2021/07/03 12:22:05;;;;;;;5.60;4.20;;;26.20;99.90;;;;;;4988878;28;20719;-64
2021/07/03 12:24:31;;;;;;;7.67;4.67;;;26.30;99.90;;;;;;4989272;28;20221;-65
2021/07/03 12:26:59;;;;;;;5.40;4.27;;;26.30;99.90;;;;;;4988857;28;20282;-66
2021/07/03 12:29:31;;;;;;;5.30;4.43;;;26.40;99.90;;;;;;4989115;28;20246;-66
2021/07/03 12:32:11;;;;;;;5.27;4.17;;;26.50;99.90;;;;;;4988777;28;20277;-67
2021/07/03 12:34:40;;;;;;;8.33;4.53;;;26.20;99.90;;;;;;4988853;28;20302;-67
2021/07/03 12:37:11;;;;;;;7.43;4.20;;;26.30;99.90;;;;;;4988957;28;20281;-67
2021/07/03 12:39:39;;;;;;;7.47;4.40;;;26.00;99.90;;;;;;4989146;28;20227;-67
2021/07/03 12:42:09;;;;;;;5.53;4.17;;;26.10;99.90;;;;;;4988757;28;20640;-70